Aérodrome :
LOGIN :

S'inscrire | Disclaimer

   EN    FR    IT 

 










Légende :    VFR   VFR Marginal   IFR   IFR Intensif   IFR Très Intensif
Visi : 
Plafond : 
>= 8 km
>= 3000ft
5 à 8 km
1000 à 3000 ft
1500m à 5 km
500 à 1000 ft
800 à 1500m
200 à 500 ft
< 800m
< 200 ft
Symboles :   Orages  Brouillard  Fortes neiges  Fortes précipitations  Vent > 20 kt
SIGMETs :   Divers  Orages  Givrage  Turbulence  Onde Orograph.  Cendres Volcan.






- Altitude de l'aérodrome : 39 ft
- Code IATA : TRS


LIPQ - Friuli Venezia Giulia Apt. Trieste

DERNIER METAR :
  • 140320Z AUTO 05002KT 3500 BR SCT027/// BKN044/// 13/13 Q1022

METARs EXPIRÉS :
  • 140250Z AUTO VRB01KT 3300 BR SCT044/// BKN220/// 12/12 Q1022
  • 140220Z AUTO VRB01KT 2500 BR BKN220/// 13/13 Q1022
  • 140150Z AUTO VRB01KT 4900 BR FEW190/// SCT220/// 13/13 Q1022
  • 140120Z AUTO 09003KT 7000 BKN027/// 13/13 Q1023
  • 140050Z AUTO 10003KT 7000 BKN027/// OVC200/// 13/13 Q1023

TAF TAF LIPQ
Valide du 14 à 00h jusqu'au 15 à 00h UTC


132300Z 1400/1424 VRB05KT 4000 BR SCT030
TEMPO 1400/1409 2000
BECMG 1409/1411 7000



MET'MAP, la Météo Aéronautique d'un coup d'oeil ! - Copyright ORBIFLY Décembre 2007 - Disclaimer

ORBIFLY MET'MAP TEAM :

Programmation & Développement : Alexandra Zaïnal
Conception & Développement : Baudouin d'Aumeries
Co-Programmation & Développement : Marc-Olivier Méhu
Soutien technique & logistique : Manuel Goepfert

Contact : metmap@orbifly.com




SOURCES & CREDITS :

   NOAA